Kaltag, AK

7:25 AM AKDT on July 26, 2016 (GMT -0800)
Kaltag | | Change Station

Elev 200 ft 64.32 °N, 158.74 °W | Updated 32 minutes ago

Light Rain
Light Rain
52 °F
Feels Like 52 °F
N
5
Wind Variable Wind from WSW

Today
High -- | Low -- °F
--% Chance of Precip.
Yesterday
High -- | Low -- °F
Precip. -- in
Pressure 29.80 in
Visibility 8.0 miles
Clouds Overcast 8000 ft
Dew Point 47 °F
Humidity 83%
Rainfall 0.01 in
Snow Depth Not available.
5:22 AM 11:57 PM
Waning Gibbous, 54% visible
METAR PAKV 261453Z AUTO 24004KT 8SM -RA OVC080 11/08 A2980 RMK AO2 RAB18 SLP091 P0001 60001 T01110083 58000 TSNO
Pressure 29.80 in
Visibility 8.0 miles
Clouds Overcast 8000 ft
Dew Point 47 °F
Humidity 83%
Rainfall 0.01 in
Snow Depth Not available.
5:22 AM 11:57 PM
Waning Gibbous, 54% visible
METAR PAKV 261453Z AUTO 24004KT 8SM -RA OVC080 11/08 A2980 RMK AO2 RAB18 SLP091 P0001 60001 T01110083 58000 TSNO

10-Day Weather Forecast

Almanac

Astronomy

Jul. 26, 2016 Rise Set
Actual Time
Civil Twilight
Nautical Twilight
Astronomical Twilight
Moon
Length of Visible Light
Length of Day
Tomorrow will be .
, % of the Moon is Illuminated

Today's Extremes

State Highs State Lows

Community

WunderPhotos

Upload Photos

1,927,611 photos uploaded!

WunderBlog® & News

Nearby

Air Quality

  Air Quality AQ Index Pollutant
Not available.

Snow Depth

Station Depth Elevation

Earthquake Activity

City Distance Mag. Time & Date
Minimum magnitude displayed is 2.5.

Coastal Water Temperatures

Place Temperature

Stations

Nearby Weather Stations

Station Location Temp. Windchill Dew Point Humidity Wind Precip. Elev Updated Type
                   

Watches & Warnings

There are currently no watches in effect.